createdAt,value
2019-03-17T05:02:13.708Z,8.631897
2019-03-17T05:05:41.391Z,8.652039
2019-03-17T05:09:09.259Z,8.621826
2019-03-17T05:12:45.832Z,8.621826
2019-03-17T05:16:13.680Z,8.652039
2019-03-17T05:19:41.550Z,8.621826
2019-03-17T05:23:09.416Z,8.601685
2019-03-17T05:26:37.305Z,8.67218
2019-03-17T05:30:05.182Z,8.702393
2019-03-17T05:33:33.050Z,8.652039
2019-03-17T05:37:05.767Z,8.752747
2019-03-17T05:40:31.833Z,8.853455
2019-03-17T05:43:59.651Z,8.863525
2019-03-17T05:47:27.530Z,8.893738
2019-03-17T05:50:55.389Z,8.863525
2019-03-17T05:54:23.253Z,8.964233
2019-03-17T05:57:51.183Z,8.954163
2019-03-17T06:01:19.008Z,8.92395
2019-03-17T06:04:46.889Z,8.92395
2019-03-17T06:08:14.775Z,8.954163
2019-03-17T06:11:42.658Z,9.014587
2019-03-17T06:15:10.570Z,8.984375
2019-03-17T06:18:38.512Z,8.964233
2019-03-17T06:22:06.376Z,8.92395
2019-03-17T06:25:35.269Z,8.954163
2019-03-17T06:29:04.132Z,8.934021
2019-03-17T06:32:31.981Z,8.903809
2019-03-17T06:35:59.847Z,8.954163
2019-03-17T06:39:27.710Z,8.934021
2019-03-17T06:42:55.621Z,8.984375
2019-03-17T06:46:24.046Z,9.034729
2019-03-17T06:49:52.098Z,9.155579
2019-03-17T06:53:20.513Z,9.266357
2019-03-17T06:56:48.402Z,9.407349
2019-03-17T07:00:18.132Z,9.497986
2019-03-17T07:03:46.029Z,9.568481
2019-03-17T07:07:13.990Z,9.628906
2019-03-17T07:10:41.802Z,9.649048
2019-03-17T07:14:09.690Z,9.669189
2019-03-17T07:17:37.577Z,9.649048
2019-03-17T07:21:05.442Z,9.659119
2019-03-17T07:24:33.334Z,9.699402
2019-03-17T07:28:01.844Z,9.719543
2019-03-17T07:31:30.826Z,9.749756
2019-03-17T07:34:59.722Z,9.830322
2019-03-17T07:38:27.635Z,9.840393
2019-03-17T07:41:55.485Z,9.93103
2019-03-17T07:45:23.381Z,9.981384
2019-03-17T07:48:51.343Z,9.981384
2019-03-17T07:52:19.483Z,10.011597
2019-03-17T07:55:47.414Z,10.162659
2019-03-17T07:59:15.311Z,10.263367
2019-03-17T08:02:43.186Z,10.202942
2019-03-17T08:06:11.932Z,10.122375
2019-03-17T08:09:39.802Z,10.092163
2019-03-17T08:13:08.653Z,10.102234
2019-03-17T08:16:36.547Z,10.213013
2019-03-17T08:20:05.023Z,10.142517
2019-03-17T08:23:36.640Z,10.213013
2019-03-17T08:27:11.909Z,10.545349
2019-03-17T08:30:53.260Z,10.635986
2019-03-17T08:34:19.521Z,10.646057
2019-03-17T08:37:47.385Z,10.726624
2019-03-17T08:41:15.297Z,10.776978
2019-03-17T08:44:43.185Z,10.716553
2019-03-17T08:48:11.058Z,10.716553
2019-03-17T08:51:38.953Z,10.827332
2019-03-17T08:55:06.788Z,11.119385
2019-03-17T08:58:34.666Z,11.199951
2019-03-17T09:02:02.518Z,11.17981
2019-03-17T09:05:30.380Z,11.230164
2019-03-17T09:08:58.278Z,11.149597
2019-03-17T09:12:26.475Z,11.129456
2019-03-17T09:15:54.357Z,11.129456
2019-03-17T09:19:23.287Z,11.048889
2019-03-17T09:22:51.193Z,11.008606
2019-03-17T09:26:19.140Z,10.998535
2019-03-17T09:29:47.029Z,11.008606
2019-03-17T09:33:14.969Z,11.220093
2019-03-17T09:36:42.838Z,11.18988
2019-03-17T09:40:10.727Z,11.149597
2019-03-17T09:43:38.873Z,10.948181
2019-03-17T09:47:07.823Z,10.726624
2019-03-17T09:50:35.701Z,9.880676
2019-03-17T09:54:03.581Z,8.460693
2019-03-17T09:57:31.444Z,8.088074
2019-03-17T10:00:59.312Z,7.957153
2019-03-17T10:04:27.206Z,7.836304
2019-03-17T10:07:55.096Z,7.624817
2019-03-17T10:11:22.960Z,7.54425
2019-03-17T10:14:50.859Z,7.524109
2019-03-17T10:18:18.738Z,7.463684
2019-03-17T10:21:47.586Z,7.443542
2019-03-17T10:25:15.456Z,7.342834
2019-03-17T10:28:43.327Z,7.423401
2019-03-17T10:32:11.191Z,7.423401
2019-03-17T10:35:39.082Z,7.473755
2019-03-17T10:39:12.170Z,7.524109
2019-03-17T10:42:37.802Z,7.54425
2019-03-17T10:46:05.685Z,7.524109
2019-03-17T10:49:33.580Z,7.443542
2019-03-17T10:53:01.441Z,7.463684
2019-03-17T10:56:29.327Z,7.433472
2019-03-17T10:59:57.199Z,7.493896
2019-03-17T11:03:25.063Z,7.524109
2019-03-17T11:06:52.945Z,7.675171
2019-03-17T11:10:20.807Z,7.705383
2019-03-17T11:13:49.654Z,7.826233
2019-03-17T11:17:17.559Z,8.007507
2019-03-17T11:20:45.508Z,7.957153
2019-03-17T11:24:20.356Z,7.957153
2019-03-17T11:27:48.212Z,7.957153
2019-03-17T11:31:16.127Z,8.057861
2019-03-17T11:34:44.003Z,7.947083
2019-03-17T11:38:11.861Z,8.057861
2019-03-17T11:41:42.295Z,8.188782
2019-03-17T11:45:10.165Z,8.128357
2019-03-17T11:48:38.071Z,8.118286
2019-03-17T11:52:05.965Z,8.158569
2019-03-17T11:55:33.870Z,8.158569
2019-03-17T11:59:01.755Z,8.16864
2019-03-17T12:02:29.616Z,8.229065
2019-03-17T12:05:57.482Z,8.339844
2019-03-17T12:09:29.169Z,8.440552
2019-03-17T12:12:55.214Z,8.319702
2019-03-17T12:16:23.084Z,8.339844
2019-03-17T12:19:51.876Z,8.410339
2019-03-17T12:23:19.740Z,8.349915
2019-03-17T12:26:47.602Z,8.42041
2019-03-17T12:30:15.464Z,8.279419
2019-03-17T12:33:43.351Z,8.098145
2019-03-17T12:37:11.233Z,8.047791
2019-03-17T12:40:39.087Z,7.977295
2019-03-17T12:44:07.037Z,8.047791
2019-03-17T12:47:37.166Z,8.047791
2019-03-17T12:51:03.707Z,7.957153
2019-03-17T12:54:31.676Z,8.03772
2019-03-17T12:57:59.538Z,8.047791
2019-03-17T13:01:27.393Z,8.047791
2019-03-17T13:04:55.259Z,8.098145
2019-03-17T13:08:23.159Z,8.047791
2019-03-17T13:11:51.026Z,8.098145
2019-03-17T13:15:18.897Z,8.28949
2019-03-17T13:18:46.788Z,8.42041
2019-03-17T13:22:14.636Z,8.561401
2019-03-17T13:25:42.502Z,8.631897
2019-03-17T13:29:10.368Z,8.571472
2019-03-17T13:32:38.231Z,8.67218
2019-03-17T13:36:06.112Z,8.994446
2019-03-17T13:39:34.041Z,8.903809
2019-03-17T13:43:01.905Z,8.92395
2019-03-17T13:46:29.755Z,8.954163
2019-03-17T13:49:57.622Z,8.954163
2019-03-17T13:53:25.483Z,9.155579
2019-03-17T13:56:53.340Z,9.316711
2019-03-17T14:00:21.210Z,9.256287
2019-03-17T14:03:49.118Z,9.145508
2019-03-17T14:07:17.972Z,9.447632
2019-03-17T14:10:46.829Z,9.437561
2019-03-17T14:14:14.696Z,9.779968
2019-03-17T14:17:42.550Z,9.719543
2019-03-17T14:21:10.410Z,9.669189
2019-03-17T14:24:38.303Z,9.659119
2019-03-17T14:28:06.151Z,9.870605
2019-03-17T14:31:35.013Z,9.900818
2019-03-17T14:35:03.869Z,9.900818
2019-03-17T14:38:31.740Z,10.122375
2019-03-17T14:42:00.683Z,9.961243
2019-03-17T14:45:28.652Z,10.011597
2019-03-17T14:48:56.527Z,9.981384
2019-03-17T14:52:24.433Z,10.354004
2019-03-17T14:55:52.335Z,10.67627
2019-03-17T14:59:20.190Z,10.696411
2019-03-17T15:02:48.078Z,10.797119
2019-03-17T15:06:15.943Z,10.93811
2019-03-17T15:09:43.795Z,10.615845
2019-03-17T15:13:11.660Z,10.454712
2019-03-17T15:16:39.526Z,10.172729
2019-03-17T15:20:07.413Z,10.273438
2019-03-17T15:23:35.302Z,10.082092
2019-03-17T15:27:03.191Z,10.847473
2019-03-17T15:30:31.071Z,10.968323
2019-03-17T15:33:58.940Z,11.199951
2019-03-17T15:37:26.817Z,10.817261
2019-03-17T15:40:54.683Z,11.411438
2019-03-17T15:44:23.549Z,11.743774
2019-03-17T15:47:51.432Z,11.522217
2019-03-17T15:51:20.807Z,10.263367
2019-03-17T15:54:49.137Z,9.719543
2019-03-17T15:58:16.999Z,9.336853
2019-03-17T16:01:44.863Z,9.105225
2019-03-17T16:05:12.723Z,8.954163
2019-03-17T16:08:41.632Z,8.813171
2019-03-17T16:12:09.502Z,8.722534
2019-03-17T16:15:40.130Z,8.652039
2019-03-17T16:19:07.208Z,8.601685
2019-03-17T16:22:35.071Z,8.551331
2019-03-17T16:26:02.930Z,8.500977
2019-03-17T16:29:30.804Z,8.410339
2019-03-17T16:32:58.685Z,8.42041
2019-03-17T16:36:26.546Z,8.390198
2019-03-17T16:39:55.155Z,8.410339
2019-03-17T16:43:24.008Z,8.349915
2019-03-17T16:46:51.878Z,8.279419
2019-03-17T16:50:19.721Z,8.198853
2019-03-17T16:53:47.604Z,8.118286
2019-03-17T16:57:15.589Z,8.03772
2019-03-17T17:00:44.433Z,7.906799
2019-03-17T17:04:12.304Z,7.796021
2019-03-17T17:07:40.685Z,7.725525
2019-03-17T17:11:08.541Z,7.644958
2019-03-17T17:14:36.417Z,7.554321
2019-03-17T17:18:04.295Z,7.554321
2019-03-17T17:21:32.131Z,7.493896
2019-03-17T17:25:00.942Z,7.443542
2019-03-17T17:28:28.933Z,7.393188
2019-03-17T17:31:57.389Z,7.393188
2019-03-17T17:35:34.512Z,7.342834
2019-03-17T17:39:03.391Z,7.342834
2019-03-17T17:42:31.255Z,7.332764
2019-03-17T17:45:59.135Z,7.242126
2019-03-17T17:49:27.024Z,7.191772
2019-03-17T17:52:54.913Z,7.131348
2019-03-17T17:56:22.766Z,7.111206
2019-03-17T17:59:50.676Z,7.111206
2019-03-17T18:03:19.555Z,7.010498
2019-03-17T18:06:47.421Z,6.919861
2019-03-17T18:10:15.276Z,6.879578
2019-03-17T18:13:43.180Z,6.809082
2019-03-17T18:17:11.028Z,6.698303
2019-03-17T18:20:39.093Z,6.668091
2019-03-17T18:24:06.956Z,6.597595
2019-03-17T18:27:34.811Z,6.5271
2019-03-17T18:31:02.736Z,6.5271
2019-03-17T18:34:30.632Z,6.456604
2019-03-17T18:37:58.551Z,6.416321
2019-03-17T18:41:27.197Z,6.456604
2019-03-17T18:44:56.051Z,6.466675
2019-03-17T18:48:23.921Z,6.426392
2019-03-17T18:51:51.780Z,6.396179
2019-03-17T18:55:19.715Z,6.295471
2019-03-17T18:58:47.615Z,6.27533
2019-03-17T19:02:15.471Z,6.27533
2019-03-17T19:05:43.335Z,6.265259
2019-03-17T19:09:11.210Z,6.184692
2019-03-17T19:12:45.187Z,6.053772
2019-03-17T19:16:10.954Z,6.063843
2019-03-17T19:19:38.828Z,6.083984
2019-03-17T19:23:06.725Z,6.02356
2019-03-17T19:26:34.614Z,5.983276
2019-03-17T19:30:02.522Z,5.942993
2019-03-17T19:33:30.428Z,5.882568
2019-03-17T19:36:59.537Z,5.77179
2019-03-17T19:40:28.411Z,5.761719
2019-03-17T19:43:56.326Z,5.731506
2019-03-17T19:47:24.190Z,5.671082
2019-03-17T19:50:52.090Z,5.580444
2019-03-17T19:54:20.921Z,5.509949
2019-03-17T19:57:48.829Z,5.52002
2019-03-17T20:01:16.714Z,5.469666
2019-03-17T20:04:44.598Z,5.389099
2019-03-17T20:08:12.490Z,5.358887
2019-03-17T20:11:40.349Z,5.338745
2019-03-17T20:15:08.226Z,5.288391
2019-03-17T20:18:36.109Z,5.207825
2019-03-17T20:22:05.964Z,5.157471
2019-03-17T20:25:33.884Z,5.1474
2019-03-17T20:29:01.794Z,5.086975
2019-03-17T20:32:30.343Z,5.056763
2019-03-17T20:35:59.186Z,5.036621
2019-03-17T20:39:27.057Z,4.996338
2019-03-17T20:42:54.965Z,4.976196
2019-03-17T20:46:23.788Z,4.956055
2019-03-17T20:49:51.667Z,4.966125
2019-03-17T20:53:19.533Z,5.02655
2019-03-17T20:56:47.440Z,4.966125
2019-03-17T21:00:15.312Z,4.966125
2019-03-17T21:03:44.215Z,4.956055
2019-03-17T21:07:13.058Z,4.966125
2019-03-17T21:10:40.983Z,4.996338
2019-03-17T21:14:11.060Z,4.976196
2019-03-17T21:17:38.908Z,4.976196
2019-03-17T21:21:06.780Z,4.905701
2019-03-17T21:24:34.644Z,4.905701
2019-03-17T21:28:02.496Z,4.875488
2019-03-17T21:31:30.432Z,4.784851
2019-03-17T21:34:58.298Z,4.744568
2019-03-17T21:38:26.150Z,4.694214
2019-03-17T21:41:54.017Z,4.724426
2019-03-17T21:45:21.890Z,4.674072
2019-03-17T21:48:51.717Z,4.664001
2019-03-17T21:52:19.589Z,4.64386
2019-03-17T21:55:47.473Z,4.603577
2019-03-17T21:59:17.314Z,4.573364
2019-03-17T22:02:46.176Z,4.543152
2019-03-17T22:06:16.021Z,4.533081
2019-03-17T22:09:44.870Z,4.593506
2019-03-17T22:13:12.751Z,4.573364
2019-03-17T22:16:40.612Z,4.593506
2019-03-17T22:20:08.470Z,4.533081
2019-03-17T22:23:37.325Z,4.512939
2019-03-17T22:27:05.202Z,4.492798
2019-03-17T22:30:33.062Z,4.462585
2019-03-17T22:34:00.916Z,4.412231
2019-03-17T22:37:29.762Z,4.361877
2019-03-17T22:40:57.622Z,4.382019
2019-03-17T22:44:27.993Z,4.382019
2019-03-17T22:47:54.355Z,4.311523
2019-03-17T22:51:22.214Z,4.341736
2019-03-17T22:54:50.061Z,4.382019
2019-03-17T22:58:17.921Z,4.452515
